createdAt,value
2024-02-05T05:01:40.598Z,10.56
2024-02-05T05:05:43.322Z,10.54
2024-02-05T05:09:45.813Z,10.52
2024-02-05T05:13:49.993Z,10.45
2024-02-05T05:17:53.870Z,10.37
2024-02-05T05:21:57.054Z,10.25
2024-02-05T05:25:59.564Z,10.30
2024-02-05T05:30:02.047Z,10.22
2024-02-05T05:34:07.751Z,10.25
2024-02-05T05:38:10.398Z,10.25
2024-02-05T05:42:12.970Z,10.19
2024-02-05T05:46:15.495Z,10.21
2024-02-05T05:50:19.593Z,10.25
2024-02-05T05:54:22.143Z,10.25
2024-02-05T05:58:24.689Z,10.25
2024-02-05T06:02:27.322Z,10.16
2024-02-05T06:06:31.318Z,10.22
2024-02-05T06:10:34.443Z,10.22
2024-02-05T06:14:37.008Z,10.25
2024-02-05T06:18:39.641Z,10.28
2024-02-05T06:22:43.584Z,10.27
2024-02-05T06:26:46.065Z,10.33
2024-02-05T06:30:50.988Z,10.44
2024-02-05T06:34:53.693Z,10.40
2024-02-05T06:38:57.588Z,10.47
2024-02-05T06:43:00.638Z,10.46
2024-02-05T06:47:04.225Z,10.48
2024-02-05T06:51:06.707Z,10.40
2024-02-05T06:55:10.848Z,10.34
2024-02-05T06:59:13.427Z,10.36
2024-02-05T07:03:19.411Z,10.39
2024-02-05T07:07:23.058Z,10.30
2024-02-05T07:11:27.824Z,10.28
2024-02-05T07:15:30.338Z,10.39
2024-02-05T07:19:33.041Z,10.40
2024-02-05T07:23:36.260Z,10.43
2024-02-05T07:27:40.950Z,10.44
2024-02-05T07:31:43.460Z,10.29
2024-02-05T07:35:45.959Z,10.37
2024-02-05T07:39:48.572Z,10.51
2024-02-05T07:43:52.433Z,10.37
2024-02-05T07:47:55.007Z,10.46
2024-02-05T07:51:57.559Z,10.49
2024-02-05T07:56:00.086Z,10.51
2024-02-05T08:00:04.023Z,10.51
2024-02-05T08:04:14.919Z,10.54
2024-02-05T08:08:17.436Z,10.44
2024-02-05T08:12:20.115Z,10.59
2024-02-05T08:16:24.037Z,10.55
2024-02-05T08:20:26.549Z,10.47
2024-02-05T08:24:29.052Z,10.52
2024-02-05T08:28:31.555Z,10.54
2024-02-05T08:32:35.473Z,10.62
2024-02-05T08:36:38.066Z,10.59
2024-02-05T08:40:40.585Z,10.62
2024-02-05T08:44:43.077Z,10.67
2024-02-05T08:48:47.098Z,10.63
2024-02-05T08:52:49.739Z,10.56
2024-02-05T08:56:52.221Z,10.60
2024-02-05T09:00:55.065Z,10.64
2024-02-05T09:04:59.060Z,10.66
2024-02-05T09:09:01.564Z,10.68
2024-02-05T09:13:04.525Z,10.73
2024-02-05T09:17:07.224Z,10.68
2024-02-05T09:21:11.088Z,10.61
2024-02-05T09:25:13.770Z,10.64
2024-02-05T09:29:16.287Z,10.60
2024-02-05T09:33:19.635Z,10.60
2024-02-05T09:37:23.601Z,10.58
2024-02-05T09:41:32.293Z,10.52
2024-02-05T09:45:37.185Z,10.57
2024-02-05T09:49:40.623Z,10.55
2024-02-05T09:53:44.518Z,10.59
2024-02-05T09:57:47.729Z,10.67
2024-02-05T10:01:51.103Z,10.56
2024-02-05T10:05:55.041Z,10.65
2024-02-05T10:10:01.535Z,10.65
2024-02-05T10:14:04.030Z,10.79
2024-02-05T10:18:07.095Z,10.70
2024-02-05T10:22:10.255Z,10.77
2024-02-05T10:26:14.992Z,10.81
2024-02-05T10:30:18.653Z,10.67
2024-02-05T10:34:23.073Z,10.81
2024-02-05T10:38:26.422Z,10.85
2024-02-05T10:42:30.308Z,10.72
2024-02-05T10:46:33.173Z,10.75
2024-02-05T10:50:35.677Z,10.76
2024-02-05T10:54:39.817Z,10.91
2024-02-05T10:58:44.494Z,10.81
2024-02-05T11:02:51.271Z,10.89
2024-02-05T11:06:56.484Z,10.81
2024-02-05T11:11:00.646Z,10.96
2024-02-05T11:15:06.978Z,11.00
2024-02-05T11:19:11.387Z,11.13
2024-02-05T11:23:15.258Z,11.01
2024-02-05T11:27:17.967Z,11.20
2024-02-05T11:31:25.312Z,11.20
2024-02-05T11:35:29.521Z,11.26
2024-02-05T11:39:32.614Z,11.25
2024-02-05T11:43:35.163Z,11.45
2024-02-05T11:47:39.209Z,11.46
2024-02-05T11:51:42.594Z,11.26
2024-02-05T11:55:45.420Z,11.65
2024-02-05T11:59:48.973Z,11.67
2024-02-05T12:03:53.145Z,12.05
2024-02-05T12:07:56.840Z,12.20
2024-02-05T12:11:59.408Z,12.11
2024-02-05T12:16:12.127Z,12.14
2024-02-05T12:20:19.512Z,12.29
2024-02-05T12:24:22.480Z,12.82
2024-02-05T12:28:25.144Z,12.96
2024-02-05T12:32:32.742Z,12.85
2024-02-05T12:36:43.517Z,12.91
2024-02-05T12:40:45.993Z,12.77
2024-02-05T12:44:57.192Z,12.81
2024-02-05T12:49:08.229Z,12.44
2024-02-05T12:53:12.166Z,12.54
2024-02-05T12:57:14.609Z,12.26
2024-02-05T13:01:17.274Z,12.35
2024-02-05T13:05:19.904Z,12.20
2024-02-05T13:09:23.841Z,12.25
2024-02-05T13:13:28.738Z,12.26
2024-02-05T13:17:31.701Z,12.26
2024-02-05T13:21:34.191Z,12.19
2024-02-05T13:25:45.229Z,12.15
2024-02-05T13:29:48.923Z,12.09
2024-02-05T13:33:51.455Z,12.21
2024-02-05T13:37:53.919Z,12.20
2024-02-05T13:41:58.078Z,12.09
2024-02-05T13:46:04.446Z,12.04
2024-02-05T13:50:09.254Z,12.20
2024-02-05T13:54:12.079Z,12.29
2024-02-05T13:58:16.972Z,12.28
2024-02-05T14:02:19.431Z,12.20
2024-02-05T14:06:22.823Z,12.21
2024-02-05T14:10:25.556Z,12.20
2024-02-05T14:14:32.221Z,12.22
2024-02-05T14:18:34.738Z,12.15
2024-02-05T14:22:37.309Z,12.26
2024-02-05T14:26:39.834Z,12.14
2024-02-05T14:30:43.767Z,12.12
2024-02-05T14:34:46.544Z,12.13
2024-02-05T14:38:49.036Z,12.22
2024-02-05T14:42:51.479Z,12.17
2024-02-05T14:46:55.655Z,12.21
2024-02-05T14:50:58.198Z,12.25
2024-02-05T14:55:02.175Z,12.15
2024-02-05T14:59:05.320Z,12.14
2024-02-05T15:03:09.094Z,12.11
2024-02-05T15:07:11.694Z,12.10
2024-02-05T15:11:14.243Z,12.02
2024-02-05T15:15:16.939Z,12.01
2024-02-05T15:19:20.985Z,11.91
2024-02-05T15:23:23.540Z,11.77
2024-02-05T15:27:26.448Z,11.64
2024-02-05T15:31:29.023Z,11.69
2024-02-05T15:35:33.063Z,11.69
2024-02-05T15:39:35.605Z,11.68
2024-02-05T15:43:38.127Z,11.64
2024-02-05T15:47:41.250Z,11.66
2024-02-05T15:51:45.171Z,11.59
2024-02-05T15:55:48.151Z,11.43
2024-02-05T15:59:50.701Z,11.36
2024-02-05T16:03:53.207Z,11.24
2024-02-05T16:07:57.173Z,11.11
2024-02-05T16:11:59.761Z,11.03
2024-02-05T16:16:02.328Z,10.93
2024-02-05T16:20:06.054Z,10.75
2024-02-05T16:24:10.336Z,10.75
2024-02-05T16:28:12.828Z,10.67
2024-02-05T16:32:16.313Z,10.57
2024-02-05T16:36:18.962Z,10.56
2024-02-05T16:40:26.447Z,10.57
2024-02-05T16:44:29.324Z,10.48
2024-02-05T16:48:31.927Z,10.53
2024-02-05T16:52:34.573Z,10.47
2024-02-05T16:56:38.450Z,10.28
2024-02-05T17:00:41.005Z,10.15
2024-02-05T17:04:43.916Z,10.11
2024-02-05T17:08:48.637Z,9.97
2024-02-05T17:12:52.514Z,9.99
2024-02-05T17:16:59.090Z,10.03
2024-02-05T17:21:04.720Z,9.95
2024-02-05T17:25:07.563Z,9.88
2024-02-05T17:29:11.392Z,9.86
2024-02-05T17:33:13.937Z,9.99
2024-02-05T17:37:17.213Z,9.87
2024-02-05T17:41:19.727Z,9.86
2024-02-05T17:45:23.573Z,9.89
2024-02-05T17:49:26.173Z,9.81
2024-02-05T17:53:28.696Z,9.77
2024-02-05T17:57:31.242Z,9.82
2024-02-05T18:01:36.796Z,9.72
2024-02-05T18:05:39.478Z,9.62
2024-02-05T18:09:41.924Z,9.64
2024-02-05T18:13:44.578Z,9.56
2024-02-05T18:17:48.489Z,9.60
2024-02-05T18:21:51.118Z,9.48
2024-02-05T18:25:53.633Z,9.51
2024-02-05T18:29:56.738Z,9.56
2024-02-05T18:34:00.722Z,9.54
2024-02-05T18:38:04.324Z,9.64
2024-02-05T18:42:07.624Z,9.71
2024-02-05T18:46:10.762Z,9.69
2024-02-05T18:50:14.892Z,9.70
2024-02-05T18:54:17.410Z,9.67
2024-02-05T18:58:19.999Z,9.76
2024-02-05T19:02:26.724Z,9.74
2024-02-05T19:06:30.793Z,9.76
2024-02-05T19:10:33.470Z,9.74
2024-02-05T19:14:36.038Z,9.69
2024-02-05T19:18:38.902Z,9.80
2024-02-05T19:22:42.725Z,9.80
2024-02-05T19:26:46.800Z,9.70
2024-02-05T19:30:49.463Z,9.72
2024-02-05T19:34:52.484Z,9.73
2024-02-05T19:38:56.326Z,9.76
2024-02-05T19:42:58.843Z,9.68
2024-02-05T19:47:02.936Z,9.70
2024-02-05T19:51:05.668Z,9.65
2024-02-05T19:55:10.844Z,9.48
2024-02-05T19:59:13.636Z,9.47
2024-02-05T20:03:16.109Z,9.39
2024-02-05T20:07:18.736Z,9.37
2024-02-05T20:11:22.630Z,9.37
2024-02-05T20:15:25.621Z,9.33
2024-02-05T20:19:28.181Z,9.39
2024-02-05T20:23:30.717Z,9.28
2024-02-05T20:27:34.563Z,9.39
2024-02-05T20:31:37.155Z,9.42
2024-02-05T20:35:39.843Z,9.51
2024-02-05T20:39:42.441Z,9.42
2024-02-05T20:43:47.583Z,9.48
2024-02-05T20:47:50.699Z,9.57
2024-02-05T20:51:53.316Z,9.44
2024-02-05T20:55:55.792Z,9.29
2024-02-05T20:59:59.668Z,9.27
2024-02-05T21:04:02.268Z,9.27
2024-02-05T21:08:05.223Z,9.15
2024-02-05T21:12:08.093Z,9.20
2024-02-05T21:16:15.880Z,9.15
2024-02-05T21:20:18.505Z,9.16
2024-02-05T21:24:21.091Z,9.20
2024-02-05T21:28:23.613Z,9.03
2024-02-05T21:32:28.194Z,9.06
2024-02-05T21:36:31.239Z,9.17
2024-02-05T21:40:35.643Z,9.21
2024-02-05T21:44:38.204Z,9.28
2024-02-05T21:48:42.065Z,9.16
2024-02-05T21:52:44.704Z,9.16
2024-02-05T21:56:47.167Z,9.06
